sensor_id;sensor_type;location;lat;lon;timestamp;P1;durP1;ratioP1;P2;durP2;ratioP2
64791;SDS011;51226;47.504;19.074;2022-12-20T00:01:19;60.12;;;29.98;;
64791;SDS011;51226;47.504;19.074;2022-12-20T00:04:24;59.10;;;30.83;;
64791;SDS011;51226;47.504;19.074;2022-12-20T00:07:27;53.75;;;29.23;;
64791;SDS011;51226;47.504;19.074;2022-12-20T00:10:30;62.08;;;31.90;;
64791;SDS011;51226;47.504;19.074;2022-12-20T00:13:33;59.92;;;31.58;;
64791;SDS011;51226;47.504;19.074;2022-12-20T00:16:36;62.65;;;32.40;;
64791;SDS011;51226;47.504;19.074;2022-12-20T00:19:39;51.97;;;30.10;;
64791;SDS011;51226;47.504;19.074;2022-12-20T00:22:42;61.00;;;30.65;;
64791;SDS011;51226;47.504;19.074;2022-12-20T00:25:45;57.80;;;30.87;;
64791;SDS011;51226;47.504;19.074;2022-12-20T00:28:47;59.40;;;29.87;;
64791;SDS011;51226;47.504;19.074;2022-12-20T00:31:50;54.60;;;29.30;;
64791;SDS011;51226;47.504;19.074;2022-12-20T00:34:53;58.20;;;30.25;;
64791;SDS011;51226;47.504;19.074;2022-12-20T00:37:56;56.22;;;29.67;;
64791;SDS011;51226;47.504;19.074;2022-12-20T00:41:04;59.85;;;31.27;;
64791;SDS011;51226;47.504;19.074;2022-12-20T00:44:17;61.22;;;29.35;;
64791;SDS011;51226;47.504;19.074;2022-12-20T00:47:19;58.22;;;31.00;;
64791;SDS011;51226;47.504;19.074;2022-12-20T00:50:23;56.08;;;29.92;;
64791;SDS011;51226;47.504;19.074;2022-12-20T00:53:26;53.13;;;30.42;;
64791;SDS011;51226;47.504;19.074;2022-12-20T00:56:29;58.90;;;30.12;;
64791;SDS011;51226;47.504;19.074;2022-12-20T00:59:32;60.78;;;30.75;;
64791;SDS011;51226;47.504;19.074;2022-12-20T01:02:35;55.50;;;30.70;;
64791;SDS011;51226;47.504;19.074;2022-12-20T01:05:48;58.25;;;29.20;;
64791;SDS011;51226;47.504;19.074;2022-12-20T01:08:55;60.80;;;32.00;;
64791;SDS011;51226;47.504;19.074;2022-12-20T01:11:58;53.30;;;28.58;;
64791;SDS011;51226;47.504;19.074;2022-12-20T01:15:02;54.63;;;30.05;;
64791;SDS011;51226;47.504;19.074;2022-12-20T01:18:05;59.17;;;31.42;;
64791;SDS011;51226;47.504;19.074;2022-12-20T01:21:09;55.67;;;29.70;;
64791;SDS011;51226;47.504;19.074;2022-12-20T01:24:15;56.70;;;30.88;;
64791;SDS011;51226;47.504;19.074;2022-12-20T01:27:20;56.17;;;29.90;;
64791;SDS011;51226;47.504;19.074;2022-12-20T01:30:23;60.67;;;29.45;;
64791;SDS011;51226;47.504;19.074;2022-12-20T01:33:26;55.78;;;27.48;;
64791;SDS011;51226;47.504;19.074;2022-12-20T01:36:31;60.80;;;29.37;;
64791;SDS011;51226;47.504;19.074;2022-12-20T01:39:35;60.33;;;31.62;;
64791;SDS011;51226;47.504;19.074;2022-12-20T01:42:38;58.25;;;31.50;;
64791;SDS011;51226;47.504;19.074;2022-12-20T01:45:41;48.53;;;26.12;;
64791;SDS011;51226;47.504;19.074;2022-12-20T01:48:46;60.55;;;30.52;;
64791;SDS011;51226;47.504;19.074;2022-12-20T01:55:21;51.50;;;28.38;;
64791;SDS011;51226;47.504;19.074;2022-12-20T01:58:27;52.78;;;28.70;;
64791;SDS011;51226;47.504;19.074;2022-12-20T02:04:34;49.23;;;27.10;;
64791;SDS011;51226;47.504;19.074;2022-12-20T02:07:37;60.23;;;28.67;;
64791;SDS011;51226;47.504;19.074;2022-12-20T02:30:51;47.47;;;27.30;;
64791;SDS011;51226;47.504;19.074;2022-12-20T02:33:56;53.25;;;27.15;;
64791;SDS011;51226;47.504;19.074;2022-12-20T02:37:01;45.28;;;27.35;;
64791;SDS011;51226;47.504;19.074;2022-12-20T02:40:04;52.60;;;28.55;;
64791;SDS011;51226;47.504;19.074;2022-12-20T02:43:08;51.13;;;28.10;;
64791;SDS011;51226;47.504;19.074;2022-12-20T02:46:32;43.60;;;25.33;;
64791;SDS011;51226;47.504;19.074;2022-12-20T02:49:37;51.92;;;28.23;;
64791;SDS011;51226;47.504;19.074;2022-12-20T02:52:42;47.45;;;25.77;;
64791;SDS011;51226;47.504;19.074;2022-12-20T02:59:02;49.17;;;26.73;;
64791;SDS011;51226;47.504;19.074;2022-12-20T03:02:10;50.53;;;28.35;;
64791;SDS011;51226;47.504;19.074;2022-12-20T03:05:14;49.10;;;28.55;;
64791;SDS011;51226;47.504;19.074;2022-12-20T03:08:18;48.55;;;26.92;;
64791;SDS011;51226;47.504;19.074;2022-12-20T03:11:22;49.70;;;27.60;;
64791;SDS011;51226;47.504;19.074;2022-12-20T03:14:25;51.58;;;27.70;;
64791;SDS011;51226;47.504;19.074;2022-12-20T03:20:32;48.10;;;26.17;;
64791;SDS011;51226;47.504;19.074;2022-12-20T03:23:34;54.53;;;26.62;;
64791;SDS011;51226;47.504;19.074;2022-12-20T03:26:38;46.95;;;26.23;;
64791;SDS011;51226;47.504;19.074;2022-12-20T03:29:42;46.70;;;26.65;;
64791;SDS011;51226;47.504;19.074;2022-12-20T03:32:47;48.75;;;28.10;;
64791;SDS011;51226;47.504;19.074;2022-12-20T03:35:50;45.57;;;27.53;;
64791;SDS011;51226;47.504;19.074;2022-12-20T03:38:53;49.40;;;27.87;;
64791;SDS011;51226;47.504;19.074;2022-12-20T03:41:57;49.10;;;26.77;;
64791;SDS011;51226;47.504;19.074;2022-12-20T03:45:00;46.13;;;27.15;;
64791;SDS011;51226;47.504;19.074;2022-12-20T03:48:03;46.90;;;25.30;;
64791;SDS011;51226;47.504;19.074;2022-12-20T03:51:07;54.42;;;27.33;;
64791;SDS011;51226;47.504;19.074;2022-12-20T03:54:09;48.63;;;26.07;;
64791;SDS011;51226;47.504;19.074;2022-12-20T03:57:13;45.25;;;24.67;;
64791;SDS011;51226;47.504;19.074;2022-12-20T04:00:16;55.85;;;26.23;;
64791;SDS011;51226;47.504;19.074;2022-12-20T04:03:21;46.33;;;24.87;;
64791;SDS011;51226;47.504;19.074;2022-12-20T04:06:23;52.77;;;25.50;;
64791;SDS011;51226;47.504;19.074;2022-12-20T04:09:26;45.65;;;25.65;;
64791;SDS011;51226;47.504;19.074;2022-12-20T04:12:30;49.40;;;26.35;;
64791;SDS011;51226;47.504;19.074;2022-12-20T04:15:33;45.30;;;25.25;;
64791;SDS011;51226;47.504;19.074;2022-12-20T04:18:36;43.22;;;24.60;;
64791;SDS011;51226;47.504;19.074;2022-12-20T04:21:39;44.90;;;25.00;;
64791;SDS011;51226;47.504;19.074;2022-12-20T04:24:42;47.85;;;25.33;;
64791;SDS011;51226;47.504;19.074;2022-12-20T04:27:46;48.30;;;25.50;;
64791;SDS011;51226;47.504;19.074;2022-12-20T04:30:48;47.83;;;25.48;;
64791;SDS011;51226;47.504;19.074;2022-12-20T04:33:53;44.28;;;24.35;;
64791;SDS011;51226;47.504;19.074;2022-12-20T04:36:55;46.08;;;24.17;;
64791;SDS011;51226;47.504;19.074;2022-12-20T04:39:58;43.50;;;23.42;;
64791;SDS011;51226;47.504;19.074;2022-12-20T04:43:01;41.43;;;23.70;;
64791;SDS011;51226;47.504;19.074;2022-12-20T04:46:04;42.78;;;24.15;;
64791;SDS011;51226;47.504;19.074;2022-12-20T04:49:07;42.67;;;23.75;;
64791;SDS011;51226;47.504;19.074;2022-12-20T04:52:12;41.15;;;24.60;;
64791;SDS011;51226;47.504;19.074;2022-12-20T04:55:37;44.22;;;24.80;;
64791;SDS011;51226;47.504;19.074;2022-12-20T04:58:42;40.35;;;24.02;;
64791;SDS011;51226;47.504;19.074;2022-12-20T05:04:49;45.10;;;22.77;;
64791;SDS011;51226;47.504;19.074;2022-12-20T05:07:52;48.15;;;24.48;;
64791;SDS011;51226;47.504;19.074;2022-12-20T05:10:55;42.90;;;24.80;;
64791;SDS011;51226;47.504;19.074;2022-12-20T05:13:58;46.72;;;23.58;;
64791;SDS011;51226;47.504;19.074;2022-12-20T05:17:02;41.22;;;24.63;;
64791;SDS011;51226;47.504;19.074;2022-12-20T05:20:05;41.20;;;23.62;;
64791;SDS011;51226;47.504;19.074;2022-12-20T05:23:09;44.30;;;23.98;;
64791;SDS011;51226;47.504;19.074;2022-12-20T05:26:34;43.78;;;25.77;;
64791;SDS011;51226;47.504;19.074;2022-12-20T05:29:39;40.92;;;23.92;;
64791;SDS011;51226;47.504;19.074;2022-12-20T05:32:43;42.97;;;23.95;;
64791;SDS011;51226;47.504;19.074;2022-12-20T05:35:46;46.65;;;24.17;;
64791;SDS011;51226;47.504;19.074;2022-12-20T05:38:49;46.80;;;24.40;;
64791;SDS011;51226;47.504;19.074;2022-12-20T05:41:53;40.92;;;23.62;;
64791;SDS011;51226;47.504;19.074;2022-12-20T05:47:59;37.75;;;21.95;;
64791;SDS011;51226;47.504;19.074;2022-12-20T05:51:02;43.28;;;24.70;;
64791;SDS011;51226;47.504;19.074;2022-12-20T05:54:06;45.50;;;25.12;;
64791;SDS011;51226;47.504;19.074;2022-12-20T05:57:11;42.05;;;23.12;;
64791;SDS011;51226;47.504;19.074;2022-12-20T06:00:16;44.03;;;25.17;;
64791;SDS011;51226;47.504;19.074;2022-12-20T06:03:22;40.97;;;23.90;;
64791;SDS011;51226;47.504;19.074;2022-12-20T06:09:28;39.95;;;23.00;;
64791;SDS011;51226;47.504;19.074;2022-12-20T06:12:32;41.70;;;23.50;;
64791;SDS011;51226;47.504;19.074;2022-12-20T06:15:36;42.30;;;24.08;;
64791;SDS011;51226;47.504;19.074;2022-12-20T06:21:42;42.15;;;22.33;;
64791;SDS011;51226;47.504;19.074;2022-12-20T06:24:46;42.15;;;24.25;;
64791;SDS011;51226;47.504;19.074;2022-12-20T06:27:50;46.80;;;24.35;;
64791;SDS011;51226;47.504;19.074;2022-12-20T06:30:57;37.40;;;22.60;;
64791;SDS011;51226;47.504;19.074;2022-12-20T06:34:00;43.58;;;23.90;;
64791;SDS011;51226;47.504;19.074;2022-12-20T06:37:03;41.05;;;23.05;;
64791;SDS011;51226;47.504;19.074;2022-12-20T06:40:08;43.50;;;24.15;;
64791;SDS011;51226;47.504;19.074;2022-12-20T06:43:12;41.37;;;21.85;;
64791;SDS011;51226;47.504;19.074;2022-12-20T06:46:15;38.88;;;23.73;;
64791;SDS011;51226;47.504;19.074;2022-12-20T06:49:18;44.00;;;24.33;;
64791;SDS011;51226;47.504;19.074;2022-12-20T06:52:22;41.78;;;23.02;;
64791;SDS011;51226;47.504;19.074;2022-12-20T06:55:28;44.35;;;24.65;;
64791;SDS011;51226;47.504;19.074;2022-12-20T06:58:31;44.88;;;25.00;;
64791;SDS011;51226;47.504;19.074;2022-12-20T07:01:34;45.55;;;25.00;;
64791;SDS011;51226;47.504;19.074;2022-12-20T07:04:37;42.08;;;23.48;;
64791;SDS011;51226;47.504;19.074;2022-12-20T07:07:40;42.95;;;24.52;;
64791;SDS011;51226;47.504;19.074;2022-12-20T07:10:46;44.28;;;25.30;;
64791;SDS011;51226;47.504;19.074;2022-12-20T07:13:53;43.40;;;25.90;;
64791;SDS011;51226;47.504;19.074;2022-12-20T07:16:57;44.30;;;26.23;;
64791;SDS011;51226;47.504;19.074;2022-12-20T07:20:00;46.35;;;25.10;;
64791;SDS011;51226;47.504;19.074;2022-12-20T07:23:07;41.90;;;23.75;;
64791;SDS011;51226;47.504;19.074;2022-12-20T07:26:10;47.10;;;26.05;;
64791;SDS011;51226;47.504;19.074;2022-12-20T07:29:13;44.65;;;25.35;;
64791;SDS011;51226;47.504;19.074;2022-12-20T07:32:17;39.78;;;23.75;;
64791;SDS011;51226;47.504;19.074;2022-12-20T07:35:20;42.88;;;24.40;;
64791;SDS011;51226;47.504;19.074;2022-12-20T07:38:23;41.75;;;24.48;;
64791;SDS011;51226;47.504;19.074;2022-12-20T07:41:26;42.90;;;25.08;;
64791;SDS011;51226;47.504;19.074;2022-12-20T07:44:29;40.78;;;24.35;;
64791;SDS011;51226;47.504;19.074;2022-12-20T07:47:32;43.72;;;24.37;;
64791;SDS011;51226;47.504;19.074;2022-12-20T07:50:37;37.17;;;22.83;;
64791;SDS011;51226;47.504;19.074;2022-12-20T07:53:41;39.05;;;23.05;;
64791;SDS011;51226;47.504;19.074;2022-12-20T07:56:50;38.90;;;21.85;;
64791;SDS011;51226;47.504;19.074;2022-12-20T07:59:57;38.55;;;23.52;;
64791;SDS011;51226;47.504;19.074;2022-12-20T08:03:04;35.78;;;20.83;;
64791;SDS011;51226;47.504;19.074;2022-12-20T08:06:12;39.72;;;21.90;;
64791;SDS011;51226;47.504;19.074;2022-12-20T08:09:16;37.80;;;21.60;;
64791;SDS011;51226;47.504;19.074;2022-12-20T08:12:20;33.80;;;19.75;;
64791;SDS011;51226;47.504;19.074;2022-12-20T08:15:24;38.63;;;20.75;;
64791;SDS011;51226;47.504;19.074;2022-12-20T08:18:27;33.92;;;21.42;;
64791;SDS011;51226;47.504;19.074;2022-12-20T08:21:30;35.30;;;20.08;;
64791;SDS011;51226;47.504;19.074;2022-12-20T08:24:33;37.00;;;21.80;;
64791;SDS011;51226;47.504;19.074;2022-12-20T08:27:36;35.17;;;20.58;;
64791;SDS011;51226;47.504;19.074;2022-12-20T08:30:39;38.95;;;22.10;;
64791;SDS011;51226;47.504;19.074;2022-12-20T08:33:42;36.28;;;22.25;;
64791;SDS011;51226;47.504;19.074;2022-12-20T08:36:45;40.60;;;21.48;;
64791;SDS011;51226;47.504;19.074;2022-12-20T08:39:48;34.20;;;20.42;;
64791;SDS011;51226;47.504;19.074;2022-12-20T08:42:51;33.35;;;20.42;;
64791;SDS011;51226;47.504;19.074;2022-12-20T08:45:54;34.97;;;20.33;;
64791;SDS011;51226;47.504;19.074;2022-12-20T08:48:57;34.55;;;21.00;;
64791;SDS011;51226;47.504;19.074;2022-12-20T08:52:00;37.10;;;23.12;;
64791;SDS011;51226;47.504;19.074;2022-12-20T08:55:03;35.30;;;22.10;;
64791;SDS011;51226;47.504;19.074;2022-12-20T08:58:07;31.10;;;21.42;;
64791;SDS011;51226;47.504;19.074;2022-12-20T09:01:11;34.00;;;22.02;;
64791;SDS011;51226;47.504;19.074;2022-12-20T09:04:20;32.38;;;20.42;;
64791;SDS011;51226;47.504;19.074;2022-12-20T09:10:25;28.25;;;20.52;;
64791;SDS011;51226;47.504;19.074;2022-12-20T09:13:28;27.73;;;20.20;;
64791;SDS011;51226;47.504;19.074;2022-12-20T09:16:31;25.58;;;19.33;;
64791;SDS011;51226;47.504;19.074;2022-12-20T09:19:35;28.50;;;20.42;;
64791;SDS011;51226;47.504;19.074;2022-12-20T09:22:38;27.30;;;19.92;;
64791;SDS011;51226;47.504;19.074;2022-12-20T09:25:41;25.05;;;19.17;;
64791;SDS011;51226;47.504;19.074;2022-12-20T09:28:44;27.62;;;19.52;;
64791;SDS011;51226;47.504;19.074;2022-12-20T09:31:48;27.23;;;18.75;;
64791;SDS011;51226;47.504;19.074;2022-12-20T09:34:51;26.30;;;19.98;;
64791;SDS011;51226;47.504;19.074;2022-12-20T09:37:54;25.42;;;19.33;;
64791;SDS011;51226;47.504;19.074;2022-12-20T09:40:58;26.77;;;18.33;;
64791;SDS011;51226;47.504;19.074;2022-12-20T09:44:10;26.60;;;18.60;;
64791;SDS011;51226;47.504;19.074;2022-12-20T09:47:21;27.50;;;20.67;;
64791;SDS011;51226;47.504;19.074;2022-12-20T09:50:35;26.00;;;17.75;;
64791;SDS011;51226;47.504;19.074;2022-12-20T09:56:54;27.02;;;18.70;;
64791;SDS011;51226;47.504;19.074;2022-12-20T10:00:14;27.48;;;18.27;;
64791;SDS011;51226;47.504;19.074;2022-12-20T10:03:22;26.48;;;18.92;;
64791;SDS011;51226;47.504;19.074;2022-12-20T10:13:12;31.45;;;18.95;;
64791;SDS011;51226;47.504;19.074;2022-12-20T10:16:31;25.48;;;19.25;;
64791;SDS011;51226;47.504;19.074;2022-12-20T10:23:10;23.73;;;19.00;;
64791;SDS011;51226;47.504;19.074;2022-12-20T10:26:36;25.48;;;18.85;;
64791;SDS011;51226;47.504;19.074;2022-12-20T10:29:39;25.90;;;18.80;;
64791;SDS011;51226;47.504;19.074;2022-12-20T10:32:47;25.27;;;18.10;;
64791;SDS011;51226;47.504;19.074;2022-12-20T10:35:52;26.87;;;18.42;;
64791;SDS011;51226;47.504;19.074;2022-12-20T10:38:56;26.05;;;18.08;;
64791;SDS011;51226;47.504;19.074;2022-12-20T10:42:00;24.37;;;17.67;;
64791;SDS011;51226;47.504;19.074;2022-12-20T10:48:27;21.83;;;17.23;;
64791;SDS011;51226;47.504;19.074;2022-12-20T10:51:32;24.05;;;17.83;;
64791;SDS011;51226;47.504;19.074;2022-12-20T10:54:41;22.55;;;18.27;;
64791;SDS011;51226;47.504;19.074;2022-12-20T10:57:48;23.55;;;18.00;;
64791;SDS011;51226;47.504;19.074;2022-12-20T11:00:52;26.65;;;18.05;;
64791;SDS011;51226;47.504;19.074;2022-12-20T11:04:30;25.08;;;18.70;;
64791;SDS011;51226;47.504;19.074;2022-12-20T11:07:34;24.83;;;18.33;;
64791;SDS011;51226;47.504;19.074;2022-12-20T11:10:38;25.05;;;19.08;;
64791;SDS011;51226;47.504;19.074;2022-12-20T11:13:42;23.92;;;18.00;;
64791;SDS011;51226;47.504;19.074;2022-12-20T11:16:46;26.55;;;18.73;;
64791;SDS011;51226;47.504;19.074;2022-12-20T11:23:19;26.05;;;18.83;;
64791;SDS011;51226;47.504;19.074;2022-12-20T11:26:56;27.33;;;19.02;;
64791;SDS011;51226;47.504;19.074;2022-12-20T11:30:23;25.83;;;18.83;;
64791;SDS011;51226;47.504;19.074;2022-12-20T11:53:38;24.70;;;19.75;;
64791;SDS011;51226;47.504;19.074;2022-12-20T11:56:47;23.83;;;17.95;;
64791;SDS011;51226;47.504;19.074;2022-12-20T11:59:55;23.60;;;17.83;;
64791;SDS011;51226;47.504;19.074;2022-12-20T12:03:09;21.98;;;17.17;;
64791;SDS011;51226;47.504;19.074;2022-12-20T12:06:21;24.15;;;17.98;;
64791;SDS011;51226;47.504;19.074;2022-12-20T12:09:30;28.12;;;18.33;;
64791;SDS011;51226;47.504;19.074;2022-12-20T12:12:45;23.33;;;18.10;;
64791;SDS011;51226;47.504;19.074;2022-12-20T12:19:10;27.33;;;19.12;;
64791;SDS011;51226;47.504;19.074;2022-12-20T12:22:15;25.98;;;19.27;;
64791;SDS011;51226;47.504;19.074;2022-12-20T12:25:25;26.10;;;19.08;;
64791;SDS011;51226;47.504;19.074;2022-12-20T12:28:28;24.25;;;18.55;;
64791;SDS011;51226;47.504;19.074;2022-12-20T12:41:53;30.23;;;19.90;;
64791;SDS011;51226;47.504;19.074;2022-12-20T12:45:25;27.23;;;19.67;;
64791;SDS011;51226;47.504;19.074;2022-12-20T12:52:00;27.35;;;19.60;;
64791;SDS011;51226;47.504;19.074;2022-12-20T13:08:45;32.13;;;18.73;;
64791;SDS011;51226;47.504;19.074;2022-12-20T13:11:51;33.83;;;19.75;;
64791;SDS011;51226;47.504;19.074;2022-12-20T13:18:23;30.83;;;18.70;;
64791;SDS011;51226;47.504;19.074;2022-12-20T13:21:29;30.88;;;19.15;;
64791;SDS011;51226;47.504;19.074;2022-12-20T13:27:40;34.63;;;19.92;;
64791;SDS011;51226;47.504;19.074;2022-12-20T13:30:47;29.77;;;18.87;;
64791;SDS011;51226;47.504;19.074;2022-12-20T13:34:34;29.35;;;18.67;;
64791;SDS011;51226;47.504;19.074;2022-12-20T13:38:02;28.52;;;19.40;;
64791;SDS011;51226;47.504;19.074;2022-12-20T13:44:41;31.42;;;18.42;;
64791;SDS011;51226;47.504;19.074;2022-12-20T13:47:51;31.00;;;18.77;;
64791;SDS011;51226;47.504;19.074;2022-12-20T13:50:58;29.65;;;19.52;;
64791;SDS011;51226;47.504;19.074;2022-12-20T13:54:06;28.40;;;18.20;;
64791;SDS011;51226;47.504;19.074;2022-12-20T13:57:18;29.53;;;18.37;;
64791;SDS011;51226;47.504;19.074;2022-12-20T14:00:28;28.92;;;18.77;;
64791;SDS011;51226;47.504;19.074;2022-12-20T14:03:31;32.78;;;18.23;;
64791;SDS011;51226;47.504;19.074;2022-12-20T14:06:41;28.23;;;18.95;;
64791;SDS011;51226;47.504;19.074;2022-12-20T14:09:45;27.80;;;16.62;;
64791;SDS011;51226;47.504;19.074;2022-12-20T14:12:51;26.25;;;17.45;;
64791;SDS011;51226;47.504;19.074;2022-12-20T14:15:55;30.83;;;18.05;;
64791;SDS011;51226;47.504;19.074;2022-12-20T14:19:19;32.13;;;20.12;;
64791;SDS011;51226;47.504;19.074;2022-12-20T14:22:22;32.40;;;18.80;;
64791;SDS011;51226;47.504;19.074;2022-12-20T14:25:29;31.40;;;18.30;;
64791;SDS011;51226;47.504;19.074;2022-12-20T14:28:56;31.40;;;18.23;;
64791;SDS011;51226;47.504;19.074;2022-12-20T14:32:01;30.77;;;19.17;;
64791;SDS011;51226;47.504;19.074;2022-12-20T14:35:05;32.45;;;18.48;;
64791;SDS011;51226;47.504;19.074;2022-12-20T14:38:20;28.73;;;18.75;;
64791;SDS011;51226;47.504;19.074;2022-12-20T14:41:35;31.00;;;19.35;;
64791;SDS011;51226;47.504;19.074;2022-12-20T14:44:40;33.15;;;20.17;;
64791;SDS011;51226;47.504;19.074;2022-12-20T14:47:50;33.70;;;20.70;;
64791;SDS011;51226;47.504;19.074;2022-12-20T14:51:03;36.97;;;21.90;;
64791;SDS011;51226;47.504;19.074;2022-12-20T14:54:11;33.45;;;20.65;;
64791;SDS011;51226;47.504;19.074;2022-12-20T14:57:45;36.38;;;22.17;;
64791;SDS011;51226;47.504;19.074;2022-12-20T15:00:59;34.72;;;20.80;;
64791;SDS011;51226;47.504;19.074;2022-12-20T15:04:20;35.72;;;19.90;;
64791;SDS011;51226;47.504;19.074;2022-12-20T15:07:38;35.85;;;20.55;;
64791;SDS011;51226;47.504;19.074;2022-12-20T15:10:47;41.15;;;23.65;;
64791;SDS011;51226;47.504;19.074;2022-12-20T15:13:57;41.28;;;24.33;;
64791;SDS011;51226;47.504;19.074;2022-12-20T15:20:05;39.33;;;23.67;;
64791;SDS011;51226;47.504;19.074;2022-12-20T15:23:17;39.88;;;22.67;;
64791;SDS011;51226;47.504;19.074;2022-12-20T15:26:22;38.55;;;24.00;;
64791;SDS011;51226;47.504;19.074;2022-12-20T15:29:27;39.88;;;24.00;;
64791;SDS011;51226;47.504;19.074;2022-12-20T15:32:31;41.37;;;24.00;;
64791;SDS011;51226;47.504;19.074;2022-12-20T15:35:34;44.75;;;24.23;;
64791;SDS011;51226;47.504;19.074;2022-12-20T15:38:37;41.47;;;23.98;;
64791;SDS011;51226;47.504;19.074;2022-12-20T15:42:00;42.13;;;24.73;;
64791;SDS011;51226;47.504;19.074;2022-12-20T15:45:06;41.30;;;23.60;;
64791;SDS011;51226;47.504;19.074;2022-12-20T15:48:15;42.38;;;24.87;;
64791;SDS011;51226;47.504;19.074;2022-12-20T15:51:25;42.42;;;25.08;;
64791;SDS011;51226;47.504;19.074;2022-12-20T15:54:34;39.33;;;25.05;;
64791;SDS011;51226;47.504;19.074;2022-12-20T15:57:38;38.28;;;23.87;;
64791;SDS011;51226;47.504;19.074;2022-12-20T16:00:41;41.67;;;25.12;;
64791;SDS011;51226;47.504;19.074;2022-12-20T16:03:44;41.35;;;25.23;;
64791;SDS011;51226;47.504;19.074;2022-12-20T16:06:48;45.58;;;25.58;;
64791;SDS011;51226;47.504;19.074;2022-12-20T16:09:52;40.45;;;24.15;;
64791;SDS011;51226;47.504;19.074;2022-12-20T16:12:55;39.35;;;23.58;;
64791;SDS011;51226;47.504;19.074;2022-12-20T16:15:58;36.67;;;22.45;;
64791;SDS011;51226;47.504;19.074;2022-12-20T16:22:05;37.37;;;23.97;;
64791;SDS011;51226;47.504;19.074;2022-12-20T16:25:26;35.85;;;22.83;;
64791;SDS011;51226;47.504;19.074;2022-12-20T16:28:33;43.13;;;25.27;;
64791;SDS011;51226;47.504;19.074;2022-12-20T16:31:38;39.65;;;24.25;;
64791;SDS011;51226;47.504;19.074;2022-12-20T16:34:43;48.15;;;24.75;;
64791;SDS011;51226;47.504;19.074;2022-12-20T16:37:47;45.22;;;26.17;;
64791;SDS011;51226;47.504;19.074;2022-12-20T16:40:50;40.22;;;25.60;;
64791;SDS011;51226;47.504;19.074;2022-12-20T16:43:53;46.03;;;26.80;;
64791;SDS011;51226;47.504;19.074;2022-12-20T16:46:57;46.13;;;28.12;;
64791;SDS011;51226;47.504;19.074;2022-12-20T16:50:00;42.80;;;24.87;;
64791;SDS011;51226;47.504;19.074;2022-12-20T16:53:04;50.97;;;27.33;;
64791;SDS011;51226;47.504;19.074;2022-12-20T16:56:07;44.45;;;26.45;;
64791;SDS011;51226;47.504;19.074;2022-12-20T16:59:12;47.75;;;27.30;;
64791;SDS011;51226;47.504;19.074;2022-12-20T17:02:29;44.97;;;25.92;;
64791;SDS011;51226;47.504;19.074;2022-12-20T17:05:35;47.97;;;29.58;;
64791;SDS011;51226;47.504;19.074;2022-12-20T17:08:38;52.67;;;30.88;;
64791;SDS011;51226;47.504;19.074;2022-12-20T17:11:54;47.67;;;28.58;;
64791;SDS011;51226;47.504;19.074;2022-12-20T17:14:57;45.28;;;28.00;;
64791;SDS011;51226;47.504;19.074;2022-12-20T17:18:00;51.63;;;30.40;;
64791;SDS011;51226;47.504;19.074;2022-12-20T17:21:03;49.55;;;29.75;;
64791;SDS011;51226;47.504;19.074;2022-12-20T17:24:18;48.00;;;28.67;;
64791;SDS011;51226;47.504;19.074;2022-12-20T17:27:23;52.40;;;30.77;;
64791;SDS011;51226;47.504;19.074;2022-12-20T17:30:26;53.42;;;30.35;;
64791;SDS011;51226;47.504;19.074;2022-12-20T17:33:29;52.75;;;32.15;;
64791;SDS011;51226;47.504;19.074;2022-12-20T17:36:32;53.75;;;30.35;;
64791;SDS011;51226;47.504;19.074;2022-12-20T17:39:39;51.37;;;29.50;;
64791;SDS011;51226;47.504;19.074;2022-12-20T17:42:42;51.72;;;29.10;;
64791;SDS011;51226;47.504;19.074;2022-12-20T17:45:45;52.13;;;31.80;;
64791;SDS011;51226;47.504;19.074;2022-12-20T17:51:52;49.85;;;28.45;;
64791;SDS011;51226;47.504;19.074;2022-12-20T17:54:55;54.45;;;31.05;;
64791;SDS011;51226;47.504;19.074;2022-12-20T17:57:57;52.53;;;31.85;;
64791;SDS011;51226;47.504;19.074;2022-12-20T18:01:00;54.08;;;31.83;;
64791;SDS011;51226;47.504;19.074;2022-12-20T18:07:07;51.50;;;29.42;;
64791;SDS011;51226;47.504;19.074;2022-12-20T18:10:11;49.28;;;29.35;;
64791;SDS011;51226;47.504;19.074;2022-12-20T18:13:13;52.90;;;31.77;;
64791;SDS011;51226;47.504;19.074;2022-12-20T18:16:18;55.42;;;31.70;;
64791;SDS011;51226;47.504;19.074;2022-12-20T18:19:22;56.37;;;31.65;;
64791;SDS011;51226;47.504;19.074;2022-12-20T18:22:26;51.20;;;31.40;;
64791;SDS011;51226;47.504;19.074;2022-12-20T18:25:29;54.55;;;30.95;;
64791;SDS011;51226;47.504;19.074;2022-12-20T18:28:32;53.53;;;32.20;;
64791;SDS011;51226;47.504;19.074;2022-12-20T18:31:35;56.45;;;33.95;;
64791;SDS011;51226;47.504;19.074;2022-12-20T18:34:38;52.55;;;32.25;;
64791;SDS011;51226;47.504;19.074;2022-12-20T18:37:41;49.27;;;30.30;;
64791;SDS011;51226;47.504;19.074;2022-12-20T18:40:44;48.53;;;32.13;;
64791;SDS011;51226;47.504;19.074;2022-12-20T18:43:47;51.67;;;31.60;;
64791;SDS011;51226;47.504;19.074;2022-12-20T18:46:51;48.33;;;30.37;;
64791;SDS011;51226;47.504;19.074;2022-12-20T18:49:54;55.03;;;32.70;;
64791;SDS011;51226;47.504;19.074;2022-12-20T18:52:58;49.10;;;30.30;;
64791;SDS011;51226;47.504;19.074;2022-12-20T18:56:06;59.88;;;33.97;;
64791;SDS011;51226;47.504;19.074;2022-12-20T18:59:16;53.42;;;30.73;;
64791;SDS011;51226;47.504;19.074;2022-12-20T19:02:18;54.17;;;34.23;;
64791;SDS011;51226;47.504;19.074;2022-12-20T19:05:22;52.03;;;31.02;;
64791;SDS011;51226;47.504;19.074;2022-12-20T19:08:26;48.17;;;28.92;;
64791;SDS011;51226;47.504;19.074;2022-12-20T19:11:30;47.20;;;28.80;;
64791;SDS011;51226;47.504;19.074;2022-12-20T19:14:33;48.33;;;29.42;;
64791;SDS011;51226;47.504;19.074;2022-12-20T19:17:36;51.63;;;29.83;;
64791;SDS011;51226;47.504;19.074;2022-12-20T19:20:39;48.07;;;29.20;;
64791;SDS011;51226;47.504;19.074;2022-12-20T19:23:43;44.85;;;27.92;;
64791;SDS011;51226;47.504;19.074;2022-12-20T19:26:48;48.35;;;28.55;;
64791;SDS011;51226;47.504;19.074;2022-12-20T19:29:51;47.45;;;28.33;;
64791;SDS011;51226;47.504;19.074;2022-12-20T19:32:55;46.53;;;27.25;;
64791;SDS011;51226;47.504;19.074;2022-12-20T19:35:58;48.42;;;27.75;;
64791;SDS011;51226;47.504;19.074;2022-12-20T19:39:14;43.47;;;26.37;;
64791;SDS011;51226;47.504;19.074;2022-12-20T19:42:27;44.60;;;26.02;;
64791;SDS011;51226;47.504;19.074;2022-12-20T19:45:30;44.17;;;26.20;;
64791;SDS011;51226;47.504;19.074;2022-12-20T19:51:36;46.37;;;25.55;;
64791;SDS011;51226;47.504;19.074;2022-12-20T19:54:39;44.40;;;27.95;;
64791;SDS011;51226;47.504;19.074;2022-12-20T19:57:44;52.88;;;28.80;;
64791;SDS011;51226;47.504;19.074;2022-12-20T20:00:47;49.58;;;29.25;;
64791;SDS011;51226;47.504;19.074;2022-12-20T20:03:52;47.47;;;28.35;;
64791;SDS011;51226;47.504;19.074;2022-12-20T20:06:56;46.15;;;27.23;;
64791;SDS011;51226;47.504;19.074;2022-12-20T20:09:59;40.10;;;25.02;;
64791;SDS011;51226;47.504;19.074;2022-12-20T20:13:03;53.38;;;31.77;;
64791;SDS011;51226;47.504;19.074;2022-12-20T20:16:06;47.25;;;27.50;;